Time;durP1;ratioP1;P1;durP2;ratioP2;P2;SDS_P1;SDS_P2;PMS_P1;PMS_P2;Temp;Humidity;BMP_temperature;BMP_pressure;BME280_temperature;BME280_humidity;BME280_pressure;Samples;Min_cycle;Max_cycle;Signal;HPM_P1;HPM_P2
2023/04/14 00:02:02;;;;;;;59.88;57.13;;;;;;;4.71;82.59;97404.31;5048063;28;20041;-73
2023/04/14 00:04:28;;;;;;;54.90;52.30;;;;;;;4.62;82.36;97407.56;5031193;28;20037;-74
2023/04/14 00:06:57;;;;;;;61.35;58.58;;;;;;;4.71;81.79;97414.22;5032691;28;20035;-75
2023/04/14 00:09:22;;;;;;;60.72;57.92;;;;;;;4.78;81.88;97421.06;5026920;28;20436;-76
2023/04/14 00:11:49;;;;;;;59.97;57.35;;;;;;;4.59;82.68;97421.34;5012581;28;20048;-76
2023/04/14 00:14:14;;;;;;;65.55;62.63;;;;;;;4.84;82.70;97430.00;5012620;28;20060;-75
2023/04/14 00:16:41;;;;;;;62.33;59.40;;;;;;;4.93;83.33;97427.81;5031164;28;20064;-76
2023/04/14 00:19:07;;;;;;;60.88;58.10;;;;;;;4.82;82.61;97432.09;5031430;28;20033;-75
2023/04/14 00:21:32;;;;;;;62.75;59.78;;;;;;;4.76;82.64;97423.13;5031146;28;20427;-76
2023/04/14 00:23:58;;;;;;;61.08;58.28;;;;;;;4.77;82.76;97434.63;5030806;28;20494;-76
2023/04/14 00:26:23;;;;;;;66.90;63.85;;;;;;;4.67;82.86;97431.69;5030949;28;20060;-75
2023/04/14 00:28:49;;;;;;;65.82;62.72;;;;;;;4.66;82.80;97433.56;5030898;28;20498;-75
2023/04/14 00:31:15;;;;;;;66.30;63.33;;;;;;;4.76;82.86;97438.34;5031185;28;20033;-75
2023/04/14 00:33:40;;;;;;;67.53;64.32;;;;;;;4.84;82.65;97438.00;5014196;28;20022;-75
2023/04/14 00:36:06;;;;;;;65.40;62.30;;;;;;;4.71;83.28;97440.88;5014329;28;20034;-75
2023/04/14 00:38:31;;;;;;;64.57;61.47;;;;;;;4.67;83.24;97439.69;5030861;28;20406;-75
2023/04/14 00:40:56;;;;;;;64.95;61.97;;;;;;;4.75;83.36;97442.03;5032008;28;20112;-75
2023/04/14 00:43:22;;;;;;;65.82;62.88;;;;;;;4.74;83.50;97440.41;5030461;28;20140;-75
2023/04/14 00:45:49;;;;;;;68.70;65.63;;;;;;;4.84;83.29;97432.69;5012694;28;20057;-77
2023/04/14 00:48:16;;;;;;;70.60;67.35;;;;;;;4.45;83.95;97422.56;5015286;28;20025;-77
2023/04/14 00:50:42;;;;;;;71.25;67.72;;;;;;;4.39;84.82;97431.44;5007806;28;20136;-76
2023/04/14 00:53:08;;;;;;;70.63;67.32;;;;;;;4.72;84.28;97437.97;5027483;28;20542;-76
2023/04/14 00:55:34;;;;;;;68.45;65.22;;;;;;;4.74;84.34;97430.56;5030348;28;20056;-76
2023/04/14 00:58:00;;;;;;;66.63;63.47;;;;;;;4.96;83.87;97428.19;5030547;28;20116;-76
2023/04/14 01:00:26;;;;;;;66.80;63.75;;;;;;;4.97;84.26;97429.81;5014640;28;20128;-77
2023/04/14 01:02:52;;;;;;;65.00;61.95;;;;;;;4.97;83.87;97423.69;5013472;28;20072;-76
2023/04/14 01:05:17;;;;;;;64.03;61.03;;;;;;;4.95;84.57;97431.91;5011934;28;20030;-77
2023/04/14 01:07:45;;;;;;;67.63;64.47;;;;;;;4.95;84.04;97426.56;5027084;28;20057;-76
2023/04/14 01:10:10;;;;;;;64.32;61.35;;;;;;;4.84;84.26;97435.34;4995124;28;20068;-77
2023/04/14 01:12:42;;;;;;;66.07;62.95;;;;;;;4.57;85.21;97439.41;5032583;28;20022;-76
2023/04/14 01:15:25;;;;;;;62.65;59.85;;;;;;;4.54;85.20;97440.69;5018999;28;20141;-77
2023/04/14 01:17:56;;;;;;;66.00;62.75;;;;;;;4.47;85.43;97444.47;5007059;28;20446;-77
2023/04/14 01:20:41;;;;;;;65.13;62.15;;;;;;;4.36;85.58;97440.72;4996461;28;20038;-77
2023/04/14 01:23:08;;;;;;;67.43;64.10;;;;;;;4.44;85.24;97447.56;5011769;28;20128;-76
2023/04/14 01:25:57;;;;;;;67.50;64.20;;;;;;;4.33;85.37;97453.66;5016976;28;20025;-76
2023/04/14 01:28:22;;;;;;;64.07;61.15;;;;;;;4.44;85.54;97451.06;5014401;28;20045;-77
2023/04/14 01:31:25;;;;;;;63.28;60.17;;;;;;;4.15;85.82;97459.81;5023064;28;20029;-76
2023/04/14 01:34:03;;;;;;;65.85;62.58;;;;;;;4.41;85.29;97461.38;5007221;28;20038;-76
2023/04/14 01:36:49;;;;;;;62.92;60.03;;;;;;;4.45;84.95;97454.53;5040249;28;20041;-77
2023/04/14 01:39:18;;;;;;;67.10;64.03;;;;;;;4.57;84.61;97466.09;5010479;28;20446;-76
2023/04/14 01:41:47;;;;;;;67.55;64.43;;;;;;;4.65;84.43;97471.09;5007332;28;20087;-76
2023/04/14 01:44:15;;;;;;;65.80;62.72;;;;;;;4.53;83.94;97467.53;5020224;28;20037;-76
2023/04/14 01:46:41;;;;;;;61.88;58.97;;;;;;;4.65;84.23;97473.75;5015124;28;20025;-76
2023/04/14 01:49:07;;;;;;;60.58;57.47;;;;;;;4.39;85.29;97479.44;5015592;28;20480;-77
2023/04/14 01:51:35;;;;;;;59.92;57.03;;;;;;;4.46;85.70;97488.13;5021773;28;20113;-77
2023/04/14 01:54:03;;;;;;;59.25;56.53;;;;;;;4.64;84.43;97472.16;5021822;28;20160;-76
2023/04/14 01:56:28;;;;;;;59.45;56.63;;;;;;;4.62;84.72;97474.22;5034361;28;20039;-76
2023/04/14 01:58:56;;;;;;;62.08;59.08;;;;;;;4.31;86.66;97466.38;5005634;28;20113;-76
2023/04/14 02:01:22;;;;;;;60.53;57.40;;;;;;;4.41;85.99;97464.81;5030424;28;20029;-76
2023/04/14 02:03:48;;;;;;;61.53;58.55;;;;;;;4.19;86.92;97464.47;5017003;28;20034;-76
2023/04/14 02:06:15;;;;;;;64.88;61.67;;;;;;;4.26;86.84;97452.91;5014779;28;20088;-76
2023/04/14 02:08:41;;;;;;;62.92;59.85;;;;;;;4.37;87.07;97449.50;5013773;28;20487;-76
2023/04/14 02:11:08;;;;;;;63.85;60.80;;;;;;;4.41;86.74;97450.69;5032366;28;20055;-76
2023/04/14 02:13:34;;;;;;;60.80;57.92;;;;;;;4.48;86.02;97451.44;5016865;28;20406;-75
2023/04/14 02:16:02;;;;;;;63.22;60.22;;;;;;;4.16;87.25;97448.91;5033614;28;20044;-78
2023/04/14 02:18:28;;;;;;;60.58;57.67;;;;;;;4.20;87.13;97441.31;5022120;28;20048;-76
2023/04/14 02:20:55;;;;;;;60.15;57.25;;;;;;;4.37;86.68;97444.16;5003658;28;20526;-75
2023/04/14 02:23:20;;;;;;;59.00;56.00;;;;;;;4.64;86.10;97440.97;5016593;28;20033;-76
2023/04/14 02:26:10;;;;;;;59.00;56.33;;;;;;;4.69;85.06;97448.28;5034471;28;20017;-74
2023/04/14 02:28:39;;;;;;;58.50;55.70;;;;;;;4.62;84.95;97448.34;5017866;28;20113;-74
2023/04/14 02:31:08;;;;;;;59.40;56.45;;;;;;;4.39;85.51;97458.09;4997286;28;20029;-74
2023/04/14 02:33:36;;;;;;;59.03;56.13;;;;;;;4.49;85.32;97459.19;4999668;28;20483;-74
2023/04/14 02:36:09;;;;;;;61.97;59.10;;;;;;;4.61;85.27;97456.59;4997515;28;20451;-74
2023/04/14 02:38:43;;;;;;;60.65;57.63;;;;;;;4.63;85.79;97449.19;5014041;28;20088;-74
2023/04/14 02:41:16;;;;;;;53.63;51.08;;;;;;;4.63;85.50;97449.19;5032957;28;20041;-74
2023/04/14 02:43:46;;;;;;;55.05;52.25;;;;;;;4.43;85.79;97452.09;5016213;28;20045;-73
2023/04/14 02:46:15;;;;;;;58.20;55.28;;;;;;;4.46;85.87;97450.81;5012812;28;20044;-73
2023/04/14 02:48:41;;;;;;;54.58;51.88;;;;;;;4.56;85.64;97443.09;4996798;28;20052;-74
2023/04/14 02:51:08;;;;;;;59.38;56.38;;;;;;;4.62;85.86;97453.69;5013987;28;20487;-74
2023/04/14 02:53:34;;;;;;;57.70;54.70;;;;;;;4.70;85.21;97449.91;5008196;28;20095;-74
2023/04/14 02:56:12;;;;;;;58.67;55.85;;;;;;;4.74;84.95;97451.06;5004579;28;20044;-74
2023/04/14 02:58:42;;;;;;;60.25;57.45;;;;;;;4.61;86.52;97456.59;5006408;28;20565;-75
2023/04/14 03:01:08;;;;;;;55.58;52.88;;;;;;;4.32;86.63;97452.84;5016198;28;20068;-75
2023/04/14 03:03:36;;;;;;;56.83;54.25;;;;;;;4.39;85.60;97468.78;5005788;28;20495;-74
2023/04/14 03:06:05;;;;;;;56.03;53.22;;;;;;;4.30;86.10;97464.75;5003109;28;20040;-74
2023/04/14 03:08:31;;;;;;;51.63;49.10;;;;;;;4.29;85.68;97460.47;5018160;28;20041;-73
2023/04/14 03:10:58;;;;;;;56.22;53.30;;;;;;;4.36;86.50;97474.53;5019116;28;20036;-73
2023/04/14 03:13:26;;;;;;;59.30;56.40;;;;;;;4.38;85.94;97462.63;5016030;28;20041;-73
2023/04/14 03:15:53;;;;;;;58.30;55.30;;;;;;;4.56;85.88;97459.09;5010664;28;20061;-73
2023/04/14 03:18:20;;;;;;;57.00;54.35;;;;;;;4.57;85.38;97460.75;5009152;28;20208;-74
2023/04/14 03:20:49;;;;;;;54.97;52.38;;;;;;;4.63;85.40;97459.84;5025504;28;20483;-73
2023/04/14 03:23:17;;;;;;;56.53;53.72;;;;;;;4.41;85.98;97466.69;5028473;28;20116;-74
2023/04/14 03:25:49;;;;;;;55.03;52.35;;;;;;;4.42;86.41;97462.97;4996974;28;20033;-74
2023/04/14 03:28:22;;;;;;;56.03;53.22;;;;;;;4.26;86.76;97460.91;5025608;28;20034;-74
2023/04/14 03:30:51;;;;;;;56.40;53.60;;;;;;;4.16;87.74;97453.44;4992822;28;20161;-74
2023/04/14 03:33:21;;;;;;;57.75;54.72;;;;;;;4.37;86.54;97444.16;5007118;28;20049;-74
2023/04/14 03:35:48;;;;;;;60.33;57.42;;;;;;;4.32;87.27;97430.72;4992790;28;20031;-74
2023/04/14 03:38:15;;;;;;;57.00;54.10;;;;;;;4.11;87.85;97432.78;4995879;28;20057;-74
2023/04/14 03:40:43;;;;;;;51.38;48.60;;;;;;;3.94;89.36;97437.09;5012099;28;20407;-73
2023/04/14 03:43:11;;;;;;;52.67;49.80;;;;;;;4.07;89.28;97428.13;4994966;28;20069;-73
2023/04/14 03:45:39;;;;;;;50.10;47.50;;;;;;;4.16;89.04;97430.28;4995822;28;20570;-73
2023/04/14 03:48:07;;;;;;;51.03;48.47;;;;;;;4.40;88.08;97417.06;4993217;28;20055;-73
2023/04/14 03:50:40;;;;;;;51.75;49.03;;;;;;;4.40;87.32;97419.75;4996038;28;20034;-73
2023/04/14 03:53:13;;;;;;;51.30;48.67;;;;;;;4.51;86.80;97418.97;4997176;28;20411;-73
2023/04/14 03:55:41;;;;;;;48.53;46.20;;;;;;;4.29;87.54;97423.16;5023134;28;20029;-74
2023/04/14 03:58:07;;;;;;;50.78;48.38;;;;;;;4.43;86.60;97438.78;5026509;28;20032;-73
2023/04/14 04:00:34;;;;;;;51.58;48.78;;;;;;;4.33;87.56;97437.66;4992227;28;20635;-74
2023/04/14 04:03:00;;;;;;;57.10;54.20;;;;;;;4.48;86.96;97444.22;5045651;28;20033;-74
2023/04/14 04:05:26;;;;;;;50.13;47.53;;;;;;;4.44;87.19;97444.91;4998440;28;20045;-74
2023/04/14 04:07:52;;;;;;;54.10;51.30;;;;;;;4.44;86.91;97455.56;5026218;28;20103;-74
2023/04/14 04:10:20;;;;;;;57.00;54.13;;;;;;;4.09;88.32;97442.84;4995218;28;20038;-74
2023/04/14 04:12:46;;;;;;;57.53;54.65;;;;;;;4.22;87.98;97448.03;5004029;28;20506;-74
2023/04/14 04:15:12;;;;;;;55.83;52.90;;;;;;;4.05;88.47;97449.66;5030988;28;20037;-74
2023/04/14 04:17:40;;;;;;;53.20;50.60;;;;;;;4.14;87.81;97444.84;5030982;28;20021;-75
2023/04/14 04:20:11;;;;;;;57.45;54.45;;;;;;;4.13;88.61;97454.69;5030347;28;20407;-75
2023/04/14 04:22:40;;;;;;;53.70;50.92;;;;;;;4.21;88.62;97450.91;4981981;28;20464;-75
2023/04/14 04:25:07;;;;;;;50.38;47.97;;;;;;;4.46;87.57;97458.81;4994777;28;20172;-74
2023/04/14 04:27:35;;;;;;;51.70;49.17;;;;;;;4.30;87.80;97460.25;5011479;28;20491;-72
2023/04/14 04:30:09;;;;;;;55.05;52.35;;;;;;;4.22;87.68;97452.56;4980394;28;20026;-74
2023/04/14 04:32:37;;;;;;;52.38;49.58;;;;;;;4.35;87.95;97456.91;5030986;28;20033;-74
2023/04/14 04:35:07;;;;;;;54.70;52.00;;;;;;;4.35;87.53;97455.06;5014056;28;20385;-75
2023/04/14 04:37:33;;;;;;;52.65;49.80;;;;;;;4.32;87.69;97446.72;5005246;28;20030;-75
2023/04/14 04:40:00;;;;;;;52.35;49.75;;;;;;;4.35;88.10;97436.41;4994495;28;20022;-75
2023/04/14 04:42:26;;;;;;;50.42;47.90;;;;;;;4.25;87.87;97445.97;5027504;28;20030;-75
2023/04/14 04:44:53;;;;;;;51.17;48.63;;;;;;;4.13;88.62;97440.56;5013994;28;20048;-75
2023/04/14 04:47:18;;;;;;;53.53;50.83;;;;;;;4.14;88.56;97440.34;5020659;28;20069;-75
2023/04/14 04:49:44;;;;;;;56.28;53.38;;;;;;;4.13;88.62;97438.69;5040704;28;20108;-74
2023/04/14 04:52:09;;;;;;;55.33;52.50;;;;;;;4.05;88.48;97436.34;5021854;28;20479;-74
2023/04/14 04:54:34;;;;;;;55.67;52.83;;;;;;;4.24;87.87;97439.81;5027175;28;20034;-74
2023/04/14 04:57:00;;;;;;;58.38;55.45;;;;;;;4.45;87.31;97442.03;5016635;22;20133;-77
2023/04/14 04:59:25;;;;;;;56.15;53.35;;;;;;;4.34;87.73;97439.31;5000008;28;20026;-77
2023/04/14 05:01:51;;;;;;;52.25;49.63;;;;;;;4.18;88.70;97438.84;5030864;28;20030;-77
2023/04/14 05:04:16;;;;;;;51.83;49.03;;;;;;;4.34;87.60;97449.97;4999398;28;20109;-75
2023/04/14 05:06:42;;;;;;;56.63;53.72;;;;;;;4.41;87.93;97445.38;5011927;28;20033;-76
2023/04/14 05:09:07;;;;;;;54.17;51.47;;;;;;;4.33;88.42;97443.00;5007519;28;20463;-75
2023/04/14 05:11:33;;;;;;;51.83;49.13;;;;;;;4.17;88.95;97439.91;5019693;28;20119;-75
2023/04/14 05:13:59;;;;;;;53.25;50.08;;;;;;;4.24;88.10;97428.34;5000689;28;20022;-77
2023/04/14 05:16:24;;;;;;;54.90;52.20;;;;;;;4.42;88.07;97441.66;5001843;28;20137;-76
2023/04/14 05:18:51;;;;;;;49.65;47.15;;;;;;;4.45;87.99;97426.03;5007735;28;20047;-75
2023/04/14 05:21:16;;;;;;;46.20;43.90;;;;;;;4.61;86.99;97427.25;5003234;28;20398;-75
2023/04/14 05:23:43;;;;;;;49.83;47.42;;;;;;;4.59;86.95;97435.50;5017112;28;20040;-75
2023/04/14 05:26:11;;;;;;;45.65;42.92;;;;;;;4.84;86.29;97440.69;5001875;28;20034;-75
2023/04/14 05:28:36;;;;;;;42.83;40.78;;;;;;;4.93;85.79;97436.66;4996984;28;20573;-75
2023/04/14 05:31:02;;;;;;;44.17;41.75;;;;;;;4.92;85.89;97432.38;5023620;28;20048;-75
2023/04/14 05:33:27;;;;;;;44.65;42.42;;;;;;;4.77;86.37;97434.63;5000241;28;20026;-73
2023/04/14 05:35:53;;;;;;;45.97;43.60;;;;;;;4.92;86.05;97436.88;5026699;28;20034;-76
2023/04/14 05:38:18;;;;;;;43.05;40.95;;;;;;;5.16;84.79;97436.72;5029941;28;20026;-76
2023/04/14 05:40:45;;;;;;;45.63;43.22;;;;;;;4.98;85.74;97447.47;5025911;28;20395;-75
2023/04/14 05:43:10;;;;;;;47.38;44.85;;;;;;;5.03;86.48;97439.59;5011102;28;20018;-75
2023/04/14 05:45:35;;;;;;;48.80;46.05;;;;;;;4.95;88.02;97458.56;4979498;28;20084;-76
2023/04/14 05:48:01;;;;;;;49.85;47.03;;;;;;;4.96;87.61;97460.22;5013386;28;20518;-76
2023/04/14 05:50:26;;;;;;;48.10;45.58;;;;;;;4.79;88.15;97457.38;5031226;28;20124;-75
2023/04/14 05:52:52;;;;;;;48.50;45.92;;;;;;;4.66;89.49;97459.41;5018354;28;20038;-75
2023/04/14 05:55:18;;;;;;;49.92;47.13;;;;;;;4.74;88.74;97467.06;5023214;28;20036;-73
2023/04/14 05:57:43;;;;;;;48.28;45.67;;;;;;;4.94;87.79;97464.97;4986764;28;20030;-75
2023/04/14 06:00:11;;;;;;;47.70;45.13;;;;;;;4.95;88.21;97471.13;5025814;28;20084;-75
2023/04/14 06:02:40;;;;;;;48.40;45.80;;;;;;;5.32;87.35;97476.09;5017068;28;20022;-75
2023/04/14 06:05:06;;;;;;;47.25;44.83;;;;;;;5.37;85.58;97475.41;5024575;28;20601;-72
2023/04/14 06:07:35;;;;;;;46.13;43.75;;;;;;;5.14;86.26;97473.50;5017936;28;20028;-73
2023/04/14 06:10:00;;;;;;;47.17;44.88;;;;;;;4.87;86.87;97473.06;5025673;28;20036;-76
2023/04/14 06:12:26;;;;;;;45.78;43.40;;;;;;;5.09;86.65;97470.69;5021553;28;20472;-75
2023/04/14 06:14:51;;;;;;;49.53;46.92;;;;;;;5.24;85.38;97473.75;5032492;28;20041;-75
2023/04/14 06:17:16;;;;;;;48.40;45.88;;;;;;;4.99;85.98;97467.78;5019012;28;20049;-76
2023/04/14 06:19:42;;;;;;;47.33;44.92;;;;;;;5.18;85.61;97461.31;5014048;28;20169;-76
2023/04/14 06:22:07;;;;;;;46.67;44.17;;;;;;;5.20;85.43;97461.94;5030477;28;20037;-76
2023/04/14 06:24:33;;;;;;;49.92;47.28;;;;;;;5.16;85.32;97455.41;5026059;28;20056;-76
2023/04/14 06:26:59;;;;;;;46.78;44.38;;;;;;;5.60;84.65;97462.91;5027211;28;20032;-75
2023/04/14 06:29:25;;;;;;;46.67;44.33;;;;;;;5.69;84.14;97470.59;5005960;28;20033;-76
2023/04/14 06:31:50;;;;;;;49.25;46.75;;;;;;;5.25;85.76;97464.69;5000401;28;20495;-76
2023/04/14 06:34:16;;;;;;;50.47;47.97;;;;;;;5.38;85.18;97458.34;5021909;28;20052;-76
2023/04/14 06:36:42;;;;;;;46.80;44.40;;;;;;;5.27;85.45;97456.47;5001926;28;20026;-76
2023/04/14 06:39:07;;;;;;;49.22;46.85;;;;;;;5.21;84.60;97463.53;5005700;28;20043;-76
2023/04/14 06:41:32;;;;;;;47.88;45.38;;;;;;;5.13;85.47;97460.38;5021304;28;20025;-76
2023/04/14 06:43:58;;;;;;;49.55;46.85;;;;;;;5.31;86.02;97453.13;4995873;28;20038;-75
2023/04/14 06:46:23;;;;;;;49.10;46.60;;;;;;;5.36;85.38;97447.09;4983298;28;20030;-76
2023/04/14 06:48:49;;;;;;;50.35;47.75;;;;;;;5.67;85.01;97456.66;5024295;28;20118;-77
2023/04/14 06:51:14;;;;;;;47.22;44.72;;;;;;;5.51;85.14;97453.63;4993675;28;20025;-76
2023/04/14 06:53:40;;;;;;;51.53;48.92;;;;;;;5.57;85.07;97444.69;5022520;28;20076;-76
2023/04/14 06:56:06;;;;;;;49.67;47.17;;;;;;;5.47;84.80;97447.13;5003201;28;20105;-75
2023/04/14 06:58:31;;;;;;;49.45;46.95;;;;;;;5.72;84.88;97454.13;5023906;28;20121;-76
2023/04/14 07:01:01;;;;;;;51.60;48.90;;;;;;;5.75;84.73;97448.28;5027671;28;20032;-76
2023/04/14 07:03:27;;;;;;;46.05;43.55;;;;;;;5.96;83.44;97447.72;5006136;28;20040;-76
2023/04/14 07:05:53;;;;;;;43.13;40.92;;;;;;;5.67;83.49;97448.66;5018718;28;20029;-76
2023/04/14 07:08:19;;;;;;;41.28;39.35;;;;;;;5.84;83.19;97457.56;5022110;28;20038;-76
2023/04/14 07:10:45;;;;;;;41.97;39.88;;;;;;;6.07;82.41;97453.06;5026131;28;20026;-76
2023/04/14 07:13:10;;;;;;;43.40;41.22;;;;;;;6.05;82.56;97446.34;5005562;28;20064;-77
2023/04/14 07:15:35;;;;;;;44.40;42.40;;;;;;;5.94;83.86;97457.84;5000176;28;20110;-76
2023/04/14 07:18:01;;;;;;;45.25;43.05;;;;;;;6.06;84.02;97450.66;5005713;28;20151;-76
2023/04/14 07:20:27;;;;;;;45.90;43.65;;;;;;;6.13;83.42;97457.50;5019221;28;20026;-76
2023/04/14 07:22:52;;;;;;;45.92;43.83;;;;;;;6.14;82.86;97455.63;5022814;28;20037;-75
2023/04/14 07:25:18;;;;;;;44.35;42.25;;;;;;;6.17;82.60;97453.31;5012423;28;20052;-76
2023/04/14 07:27:43;;;;;;;45.55;43.25;;;;;;;6.26;82.50;97456.41;5005792;28;20034;-76
2023/04/14 07:30:09;;;;;;;41.15;39.13;;;;;;;6.41;81.61;97456.75;4999912;28;20034;-76
2023/04/14 07:32:34;;;;;;;46.25;44.05;;;;;;;6.64;81.58;97448.66;5013813;28;20121;-76
2023/04/14 07:34:59;;;;;;;42.25;40.30;;;;;;;6.77;81.28;97456.41;5009065;28;20021;-76
2023/04/14 07:37:25;;;;;;;38.80;37.10;;;;;;;7.15;80.41;97452.28;5021645;28;20041;-76
2023/04/14 07:39:51;;;;;;;43.17;41.25;;;;;;;7.23;78.89;97451.91;4999562;28;20056;-76
2023/04/14 07:42:16;;;;;;;38.10;36.40;;;;;;;7.10;79.22;97463.72;5021350;28;20125;-76
2023/04/14 07:44:41;;;;;;;41.08;39.05;;;;;;;7.39;80.32;97459.16;5018617;28;20113;-76
2023/04/14 07:47:07;;;;;;;40.63;38.63;;;;;;;6.96;80.01;97457.84;5024878;28;20033;-75
2023/04/14 07:49:32;;;;;;;43.08;41.00;;;;;;;6.94;79.87;97459.13;5027103;28;20451;-76
2023/04/14 07:51:58;;;;;;;35.90;34.10;;;;;;;7.37;78.26;97463.94;5023407;28;20092;-76
2023/04/14 07:54:23;;;;;;;41.78;39.90;;;;;;;7.15;80.62;97465.66;5010775;28;20072;-76
2023/04/14 07:56:49;;;;;;;41.92;39.97;;;;;;;7.01;80.53;97461.66;5020136;28;20491;-76
2023/04/14 07:59:14;;;;;;;38.38;36.47;;;;;;;7.18;78.78;97457.16;4996507;28;20026;-76
2023/04/14 08:01:40;;;;;;;33.75;31.88;;;;;;;7.78;77.92;97450.13;4991302;28;20069;-76
2023/04/14 08:04:05;;;;;;;32.22;30.63;;;;;;;7.47;78.38;97454.19;5019800;28;20064;-76
2023/04/14 08:06:31;;;;;;;32.95;31.40;;;;;;;7.70;77.82;97436.34;5020296;28;20461;-76
2023/04/14 08:08:57;;;;;;;23.67;22.38;;;;;;;7.34;77.95;97451.03;5017885;28;20022;-76
2023/04/14 08:11:22;;;;;;;26.40;25.10;;;;;;;7.67;76.61;97448.38;4987241;28;20041;-76
2023/04/14 08:13:49;;;;;;;31.15;29.55;;;;;;;7.56;78.44;97450.06;5008369;28;20124;-75
2023/04/14 08:16:15;;;;;;;24.60;23.40;;;;;;;7.83;76.31;97433.31;5019868;28;20099;-75
2023/04/14 08:18:41;;;;;;;18.00;16.80;;;;;;;8.47;74.34;97431.81;4999873;28;20480;-75
2023/04/14 08:21:06;;;;;;;19.27;18.27;;;;;;;8.30;74.07;97430.00;5023299;28;20030;-75
2023/04/14 08:23:32;;;;;;;10.80;10.07;;;;;;;7.95;73.52;97434.03;5027037;28;20464;-75
2023/04/14 08:25:57;;;;;;;10.30;9.60;;;;;;;8.34;73.16;97433.81;5031302;28;20029;-75
2023/04/14 08:28:23;;;;;;;9.55;8.85;;;;;;;8.04;73.01;97433.38;4998397;28;20068;-75
2023/04/14 08:30:48;;;;;;;13.80;12.70;;;;;;;7.99;74.75;97427.94;5023604;28;20522;-75
2023/04/14 08:33:14;;;;;;;12.13;11.38;;;;;;;8.24;73.95;97428.28;5013342;28;20559;-76
2023/04/14 08:35:39;;;;;;;10.35;9.45;;;;;;;7.67;74.19;97421.56;5023650;28;20033;-74
2023/04/14 08:38:05;;;;;;;12.73;11.82;;;;;;;8.63;72.77;97423.72;4998211;28;20061;-75
2023/04/14 08:40:37;;;;;;;10.27;9.38;;;;;;;8.72;71.40;97429.44;4995195;28;20032;-76
2023/04/14 08:43:03;;;;;;;8.65;7.90;;;;;;;8.86;70.48;97431.50;5011217;28;20183;-75
2023/04/14 08:45:30;;;;;;;8.70;7.90;;;;;;;8.60;71.52;97429.56;5002019;28;20027;-76
2023/04/14 08:47:55;;;;;;;10.13;9.23;;;;;;;8.40;73.48;97437.38;4987051;28;20120;-76
2023/04/14 08:50:24;;;;;;;10.20;9.30;;;;;;;8.33;72.66;97432.19;5019445;28;20026;-76
2023/04/14 08:52:58;;;;;;;10.48;9.52;;;;;;;8.64;72.61;97428.00;5015975;28;20042;-76
2023/04/14 08:55:24;;;;;;;9.02;8.13;;;;;;;8.49;70.71;97435.06;5014760;28;20116;-75
2023/04/14 08:57:49;;;;;;;8.48;7.68;;;;;;;8.59;71.07;97419.09;5017722;28;20064;-74
2023/04/14 09:00:15;;;;;;;9.10;8.00;;;;;;;8.78;69.81;97425.75;5001513;28;20495;-75
2023/04/14 09:02:41;;;;;;;8.15;7.00;;;;;;;8.66;70.55;97422.41;5004312;28;20546;-75
2023/04/14 09:05:07;;;;;;;9.15;8.25;;;;;;;8.94;71.01;97422.16;5010709;28;20403;-75
2023/04/14 09:07:33;;;;;;;8.13;7.32;;;;;;;8.77;70.74;97427.63;5010824;28;20056;-75
2023/04/14 09:09:59;;;;;;;8.93;8.02;;;;;;;8.90;72.47;97437.16;5001367;28;20121;-75
2023/04/14 09:12:26;;;;;;;8.40;7.60;;;;;;;8.94;70.45;97439.09;4994687;28;20480;-75
2023/04/14 09:14:52;;;;;;;7.70;6.95;;;;;;;8.97;71.50;97437.78;5020423;28;20117;-75
2023/04/14 09:17:17;;;;;;;7.93;7.22;;;;;;;8.99;70.78;97447.19;4997649;28;20045;-75
2023/04/14 09:19:43;;;;;;;8.52;7.82;;;;;;;9.00;71.11;97448.00;5003991;28;20487;-75
2023/04/14 09:22:09;;;;;;;10.27;8.10;;;;;;;9.05;70.43;97446.19;5000964;28;20014;-75
2023/04/14 09:24:34;;;;;;;8.15;7.35;;;;;;;8.96;70.68;97446.91;5001134;28;20093;-75
2023/04/14 09:27:02;;;;;;;9.30;8.50;;;;;;;9.39;70.74;97441.41;5007452;28;20249;-76
2023/04/14 09:29:28;;;;;;;7.55;6.85;;;;;;;9.44;68.66;97437.97;5021896;28;20483;-75
2023/04/14 09:31:53;;;;;;;7.88;7.05;;;;;;;9.19;69.65;97438.56;5018441;28;20052;-75
2023/04/14 09:34:20;;;;;;;7.90;7.10;;;;;;;9.13;68.29;97447.59;5020846;28;20041;-75
2023/04/14 09:37:00;;;;;;;8.15;7.35;;;;;;;9.78;65.84;97449.28;5026799;28;20022;-75
2023/04/14 09:39:25;;;;;;;8.73;6.80;;;;;;;9.06;68.51;97447.00;5014084;28;20030;-76
2023/04/14 09:41:51;;;;;;;9.73;7.05;;;;;;;9.33;67.54;97447.81;5013858;28;20383;-75
2023/04/14 09:44:16;;;;;;;8.07;7.28;;;;;;;9.31;67.76;97438.41;5005376;28;20048;-75
2023/04/14 09:47:04;;;;;;;9.57;7.45;;;;;;;9.08;69.44;97458.28;4999816;28;20116;-75
2023/04/14 09:49:29;;;;;;;10.43;7.60;;;;;;;9.18;67.69;97455.72;5021624;28;20041;-75
2023/04/14 09:52:02;;;;;;;12.05;7.88;;;;;;;9.67;68.12;97459.94;5018588;28;20026;-75
2023/04/14 09:54:27;;;;;;;8.20;7.28;;;;;;;9.44;67.52;97460.28;5014725;28;20041;-75
2023/04/14 09:56:53;;;;;;;9.55;7.60;;;;;;;9.31;66.67;97452.63;5010444;28;20042;-75
2023/04/14 09:59:36;;;;;;;9.07;7.82;;;;;;;9.36;67.67;97452.66;5009630;28;20538;-75
2023/04/14 10:02:04;;;;;;;9.15;7.70;;;;;;;9.11;67.51;97444.38;4999444;28;20101;-75
2023/04/14 10:04:30;;;;;;;10.40;7.80;;;;;;;9.59;68.22;97441.56;5004034;28;20026;-75
2023/04/14 10:06:57;;;;;;;7.95;6.90;;;;;;;9.95;65.91;97433.78;4996337;28;20121;-76
2023/04/14 10:09:23;;;;;;;8.93;6.88;;;;;;;9.84;64.77;97427.53;5016879;28;20482;-76
2023/04/14 10:12:12;;;;;;;8.25;6.93;;;;;;;9.61;66.14;97434.06;4999724;28;20034;-76
2023/04/14 10:14:38;;;;;;;9.55;7.10;;;;;;;9.89;66.36;97435.66;5005259;28;20376;-75
2023/04/14 10:17:04;;;;;;;8.25;6.60;;;;;;;9.83;65.80;97433.16;4997451;28;20530;-76
2023/04/14 10:19:29;;;;;;;7.68;6.40;;;;;;;10.40;64.49;97436.78;5021190;28;20037;-76
2023/04/14 10:21:56;;;;;;;7.72;6.28;;;;;;;9.60;65.50;97432.47;5020277;28;20099;-75
2023/04/14 10:24:22;;;;;;;8.32;6.65;;;;;;;9.71;66.65;97434.16;5000242;28;20077;-75
2023/04/14 10:26:48;;;;;;;7.47;5.85;;;;;;;10.12;65.30;97431.78;5021066;28;20021;-76
2023/04/14 10:29:15;;;;;;;6.30;5.70;;;;;;;10.01;65.72;97438.16;5010041;28;20061;-75
2023/04/14 10:31:49;;;;;;;6.80;5.82;;;;;;;10.09;67.19;97424.19;4997384;28;20050;-76
2023/04/14 10:34:15;;;;;;;7.15;5.90;;;;;;;9.74;66.28;97428.28;5009600;28;20549;-76
2023/04/14 10:36:41;;;;;;;6.38;5.70;;;;;;;9.82;65.32;97431.56;4995589;28;20030;-75
2023/04/14 10:39:09;;;;;;;6.65;5.75;;;;;;;10.44;64.34;97427.09;5013785;28;20064;-75
2023/04/14 10:41:48;;;;;;;7.38;6.03;;;;;;;9.95;65.13;97431.09;4982855;28;20026;-75
2023/04/14 10:44:31;;;;;;;6.85;5.63;;;;;;;9.75;66.02;97424.50;5010690;28;20539;-75
2023/04/14 10:47:01;;;;;;;9.27;6.50;;;;;;;9.73;65.84;97415.88;5014087;28;20087;-75
2023/04/14 10:49:34;;;;;;;7.13;5.80;;;;;;;10.30;65.26;97416.00;5013840;28;20112;-75
2023/04/14 10:52:15;;;;;;;8.50;6.03;;;;;;;10.42;64.67;97410.41;5017472;28;20033;-76
2023/04/14 10:54:54;;;;;;;8.45;6.00;;;;;;;10.47;65.36;97394.28;5024657;28;20475;-76
2023/04/14 10:57:23;;;;;;;7.28;5.97;;;;;;;10.37;66.67;97399.63;5038245;23;20453;-76
2023/04/14 10:59:58;;;;;;;8.63;6.75;;;;;;;10.54;66.23;97392.16;5031846;28;20482;-77
2023/04/14 11:02:28;;;;;;;6.60;5.85;;;;;;;10.42;65.89;97386.19;5032629;28;20056;-77
2023/04/14 11:05:09;;;;;;;6.53;5.70;;;;;;;10.59;64.95;97384.13;5032574;28;20044;-77
2023/04/14 11:07:44;;;;;;;6.38;5.55;;;;;;;10.66;64.51;97378.47;5045057;28;20064;-76
2023/04/14 11:10:16;;;;;;;7.90;6.07;;;;;;;11.18;65.71;97381.00;5043694;28;20087;-76
2023/04/14 11:12:42;;;;;;;7.70;6.05;;;;;;;10.75;63.47;97375.00;5035530;28;20045;-77
2023/04/14 11:15:08;;;;;;;6.80;5.78;;;;;;;10.81;63.98;97373.94;5018939;28;20444;-77
2023/04/14 11:17:37;;;;;;;5.70;4.95;;;;;;;11.19;63.18;97374.53;5018838;28;20033;-76
2023/04/14 11:20:19;;;;;;;7.28;5.78;;;;;;;10.90;63.33;97377.72;5040479;28;20100;-77
2023/04/14 11:22:46;;;;;;;6.55;5.20;;;;;;;11.46;62.05;97369.72;5032107;28;20368;-77
2023/04/14 11:25:14;;;;;;;7.68;5.80;;;;;;;10.86;62.44;97371.25;5015625;28;20079;-76
2023/04/14 11:27:40;;;;;;;8.93;6.25;;;;;;;10.97;63.45;97362.09;5033295;28;20029;-78
2023/04/14 11:30:08;;;;;;;9.50;7.15;;;;;;;11.33;62.50;97360.25;5032098;28;20033;-77
2023/04/14 11:32:50;;;;;;;7.00;6.18;;;;;;;11.31;62.90;97350.81;4999215;28;20473;-76